sensor_id;sensor_type;location;lat;lon;timestamp;temperature;humidity
4306;DHT22;2166;49.926;8.608;2024-02-23T00:00:50;8.60;79.90
4306;DHT22;2166;49.926;8.608;2024-02-23T00:03:18;8.50;79.90
4306;DHT22;2166;49.926;8.608;2024-02-23T00:05:49;8.50;79.80
4306;DHT22;2166;49.926;8.608;2024-02-23T00:08:19;8.40;79.80
4306;DHT22;2166;49.926;8.608;2024-02-23T00:10:47;8.40;80.00
4306;DHT22;2166;49.926;8.608;2024-02-23T00:13:16;8.30;79.80
4306;DHT22;2166;49.926;8.608;2024-02-23T00:15:44;8.30;80.20
4306;DHT22;2166;49.926;8.608;2024-02-23T00:18:12;8.20;79.90
4306;DHT22;2166;49.926;8.608;2024-02-23T00:20:43;8.20;79.90
4306;DHT22;2166;49.926;8.608;2024-02-23T00:23:12;8.20;79.80
4306;DHT22;2166;49.926;8.608;2024-02-23T00:25:43;8.10;79.70
4306;DHT22;2166;49.926;8.608;2024-02-23T00:28:11;8.10;79.70
4306;DHT22;2166;49.926;8.608;2024-02-23T00:30:40;8.10;80.20
4306;DHT22;2166;49.926;8.608;2024-02-23T00:33:08;8.10;79.90
4306;DHT22;2166;49.926;8.608;2024-02-23T00:35:37;8.10;79.70
4306;DHT22;2166;49.926;8.608;2024-02-23T00:38:05;8.10;79.70
4306;DHT22;2166;49.926;8.608;2024-02-23T00:40:35;8.00;79.90
4306;DHT22;2166;49.926;8.608;2024-02-23T00:43:05;8.00;79.90
4306;DHT22;2166;49.926;8.608;2024-02-23T00:45:33;8.00;80.00
4306;DHT22;2166;49.926;8.608;2024-02-23T00:48:01;7.90;80.00
4306;DHT22;2166;49.926;8.608;2024-02-23T00:50:29;7.90;80.00
4306;DHT22;2166;49.926;8.608;2024-02-23T00:52:57;7.90;80.10
4306;DHT22;2166;49.926;8.608;2024-02-23T00:55:25;7.80;79.80
4306;DHT22;2166;49.926;8.608;2024-02-23T00:57:55;7.60;79.60
4306;DHT22;2166;49.926;8.608;2024-02-23T01:00:23;7.50;79.00
4306;DHT22;2166;49.926;8.608;2024-02-23T01:02:51;7.40;78.50
4306;DHT22;2166;49.926;8.608;2024-02-23T01:05:19;7.30;78.30
4306;DHT22;2166;49.926;8.608;2024-02-23T01:07:47;7.20;79.20
4306;DHT22;2166;49.926;8.608;2024-02-23T01:10:16;7.10;78.90
4306;DHT22;2166;49.926;8.608;2024-02-23T01:12:44;7.10;79.10
4306;DHT22;2166;49.926;8.608;2024-02-23T01:15:14;7.10;79.20
4306;DHT22;2166;49.926;8.608;2024-02-23T01:17:43;7.00;79.10
4306;DHT22;2166;49.926;8.608;2024-02-23T01:20:11;7.00;78.90
4306;DHT22;2166;49.926;8.608;2024-02-23T01:22:40;7.00;78.40
4306;DHT22;2166;49.926;8.608;2024-02-23T01:25:08;7.00;78.20
4306;DHT22;2166;49.926;8.608;2024-02-23T01:27:37;6.90;78.10
4306;DHT22;2166;49.926;8.608;2024-02-23T01:30:06;6.90;78.10
4306;DHT22;2166;49.926;8.608;2024-02-23T01:32:36;6.80;77.60
4306;DHT22;2166;49.926;8.608;2024-02-23T01:35:07;6.70;77.20
4306;DHT22;2166;49.926;8.608;2024-02-23T01:37:35;6.70;77.20
4306;DHT22;2166;49.926;8.608;2024-02-23T01:40:05;6.60;77.30
4306;DHT22;2166;49.926;8.608;2024-02-23T01:42:34;6.60;77.10
4306;DHT22;2166;49.926;8.608;2024-02-23T01:45:02;6.50;76.20
4306;DHT22;2166;49.926;8.608;2024-02-23T01:47:30;6.30;76.70
4306;DHT22;2166;49.926;8.608;2024-02-23T01:50:00;6.30;76.60
4306;DHT22;2166;49.926;8.608;2024-02-23T01:52:29;6.20;76.00
4306;DHT22;2166;49.926;8.608;2024-02-23T01:54:57;6.20;75.00
4306;DHT22;2166;49.926;8.608;2024-02-23T01:57:27;6.20;74.30
4306;DHT22;2166;49.926;8.608;2024-02-23T02:00:17;6.30;73.90
4306;DHT22;2166;49.926;8.608;2024-02-23T02:02:52;6.40;76.50
4306;DHT22;2166;49.926;8.608;2024-02-23T02:05:22;6.50;77.10
4306;DHT22;2166;49.926;8.608;2024-02-23T02:07:53;6.60;78.40
4306;DHT22;2166;49.926;8.608;2024-02-23T02:10:26;6.60;78.20
4306;DHT22;2166;49.926;8.608;2024-02-23T02:12:54;6.60;78.70
4306;DHT22;2166;49.926;8.608;2024-02-23T02:15:22;6.50;79.10
4306;DHT22;2166;49.926;8.608;2024-02-23T02:17:50;6.50;79.30
4306;DHT22;2166;49.926;8.608;2024-02-23T02:20:25;6.40;79.30
4306;DHT22;2166;49.926;8.608;2024-02-23T02:22:53;6.30;79.40
4306;DHT22;2166;49.926;8.608;2024-02-23T02:25:21;6.30;79.20
4306;DHT22;2166;49.926;8.608;2024-02-23T02:27:50;6.20;79.30
4306;DHT22;2166;49.926;8.608;2024-02-23T02:30:18;6.10;79.00
4306;DHT22;2166;49.926;8.608;2024-02-23T02:32:46;6.00;79.40
4306;DHT22;2166;49.926;8.608;2024-02-23T02:35:15;6.00;79.30
4306;DHT22;2166;49.926;8.608;2024-02-23T02:37:44;5.90;79.00
4306;DHT22;2166;49.926;8.608;2024-02-23T02:40:13;5.80;78.90
4306;DHT22;2166;49.926;8.608;2024-02-23T02:42:41;5.70;78.60
4306;DHT22;2166;49.926;8.608;2024-02-23T02:45:09;5.70;78.50
4306;DHT22;2166;49.926;8.608;2024-02-23T02:47:38;5.60;78.60
4306;DHT22;2166;49.926;8.608;2024-02-23T02:50:08;5.60;78.40
4306;DHT22;2166;49.926;8.608;2024-02-23T02:52:36;5.60;78.00
4306;DHT22;2166;49.926;8.608;2024-02-23T02:55:07;5.50;77.80
4306;DHT22;2166;49.926;8.608;2024-02-23T02:57:35;5.50;78.00
4306;DHT22;2166;49.926;8.608;2024-02-23T03:00:04;5.50;77.80
4306;DHT22;2166;49.926;8.608;2024-02-23T03:02:33;5.50;77.90
4306;DHT22;2166;49.926;8.608;2024-02-23T03:05:01;5.50;78.20
4306;DHT22;2166;49.926;8.608;2024-02-23T03:07:29;5.70;78.10
4306;DHT22;2166;49.926;8.608;2024-02-23T03:09:58;5.80;78.30
4306;DHT22;2166;49.926;8.608;2024-02-23T03:12:27;5.90;79.10
4306;DHT22;2166;49.926;8.608;2024-02-23T03:14:55;6.00;78.90
4306;DHT22;2166;49.926;8.608;2024-02-23T03:17:23;6.00;78.80
4306;DHT22;2166;49.926;8.608;2024-02-23T03:19:52;6.00;78.20
4306;DHT22;2166;49.926;8.608;2024-02-23T03:22:20;6.00;78.60
4306;DHT22;2166;49.926;8.608;2024-02-23T03:24:48;5.90;79.40
4306;DHT22;2166;49.926;8.608;2024-02-23T03:27:16;5.90;78.60
4306;DHT22;2166;49.926;8.608;2024-02-23T03:29:46;5.90;78.80
4306;DHT22;2166;49.926;8.608;2024-02-23T03:32:14;5.90;78.20
4306;DHT22;2166;49.926;8.608;2024-02-23T03:34:42;5.90;77.90
4306;DHT22;2166;49.926;8.608;2024-02-23T03:37:11;5.90;77.70
4306;DHT22;2166;49.926;8.608;2024-02-23T03:39:39;5.80;77.40
4306;DHT22;2166;49.926;8.608;2024-02-23T03:42:07;5.80;77.60
4306;DHT22;2166;49.926;8.608;2024-02-23T03:44:35;5.70;76.70
4306;DHT22;2166;49.926;8.608;2024-02-23T03:47:05;5.70;76.80
4306;DHT22;2166;49.926;8.608;2024-02-23T03:49:34;5.70;76.20
4306;DHT22;2166;49.926;8.608;2024-02-23T03:52:02;5.70;76.60
4306;DHT22;2166;49.926;8.608;2024-02-23T03:54:30;5.70;77.20
4306;DHT22;2166;49.926;8.608;2024-02-23T03:56:59;5.70;77.10
4306;DHT22;2166;49.926;8.608;2024-02-23T03:59:27;5.60;77.50
4306;DHT22;2166;49.926;8.608;2024-02-23T04:01:55;5.60;76.70
4306;DHT22;2166;49.926;8.608;2024-02-23T04:04:24;5.50;76.10
4306;DHT22;2166;49.926;8.608;2024-02-23T04:06:53;5.40;75.90
4306;DHT22;2166;49.926;8.608;2024-02-23T04:09:21;5.30;76.40
4306;DHT22;2166;49.926;8.608;2024-02-23T04:11:50;5.30;76.50
4306;DHT22;2166;49.926;8.608;2024-02-23T04:14:18;5.20;76.30
4306;DHT22;2166;49.926;8.608;2024-02-23T04:16:47;5.20;76.10
4306;DHT22;2166;49.926;8.608;2024-02-23T04:19:15;5.10;75.40
4306;DHT22;2166;49.926;8.608;2024-02-23T04:21:44;5.10;76.30
4306;DHT22;2166;49.926;8.608;2024-02-23T04:24:12;5.20;76.10
4306;DHT22;2166;49.926;8.608;2024-02-23T04:26:41;5.20;76.00
4306;DHT22;2166;49.926;8.608;2024-02-23T04:29:09;5.20;75.90
4306;DHT22;2166;49.926;8.608;2024-02-23T04:31:38;5.10;75.30
4306;DHT22;2166;49.926;8.608;2024-02-23T04:34:06;5.00;74.40
4306;DHT22;2166;49.926;8.608;2024-02-23T04:36:34;4.90;73.30
4306;DHT22;2166;49.926;8.608;2024-02-23T04:39:04;4.80;72.30
4306;DHT22;2166;49.926;8.608;2024-02-23T04:41:32;4.70;71.20
4306;DHT22;2166;49.926;8.608;2024-02-23T04:44:00;4.60;70.20
4306;DHT22;2166;49.926;8.608;2024-02-23T04:46:30;4.60;70.00
4306;DHT22;2166;49.926;8.608;2024-02-23T04:48:58;4.50;68.90
4306;DHT22;2166;49.926;8.608;2024-02-23T04:51:27;4.40;67.90
4306;DHT22;2166;49.926;8.608;2024-02-23T04:53:55;4.40;67.40
4306;DHT22;2166;49.926;8.608;2024-02-23T04:56:24;4.40;67.30
4306;DHT22;2166;49.926;8.608;2024-02-23T04:58:53;4.40;66.30
4306;DHT22;2166;49.926;8.608;2024-02-23T05:01:21;4.30;65.60
4306;DHT22;2166;49.926;8.608;2024-02-23T05:03:49;4.30;65.40
4306;DHT22;2166;49.926;8.608;2024-02-23T05:06:17;4.30;65.40
4306;DHT22;2166;49.926;8.608;2024-02-23T05:08:45;4.30;65.30
4306;DHT22;2166;49.926;8.608;2024-02-23T05:11:14;4.30;66.20
4306;DHT22;2166;49.926;8.608;2024-02-23T05:13:44;4.30;65.80
4306;DHT22;2166;49.926;8.608;2024-02-23T05:16:13;4.30;66.00
4306;DHT22;2166;49.926;8.608;2024-02-23T05:18:42;4.30;65.70
4306;DHT22;2166;49.926;8.608;2024-02-23T05:21:10;4.30;66.10
4306;DHT22;2166;49.926;8.608;2024-02-23T05:23:38;4.40;66.10
4306;DHT22;2166;49.926;8.608;2024-02-23T05:26:07;4.40;66.30
4306;DHT22;2166;49.926;8.608;2024-02-23T05:28:35;4.30;65.10
4306;DHT22;2166;49.926;8.608;2024-02-23T05:31:06;4.30;64.80
4306;DHT22;2166;49.926;8.608;2024-02-23T05:33:34;4.40;65.60
4306;DHT22;2166;49.926;8.608;2024-02-23T05:36:04;4.40;65.60
4306;DHT22;2166;49.926;8.608;2024-02-23T05:38:32;4.40;65.60
4306;DHT22;2166;49.926;8.608;2024-02-23T05:41:00;4.40;65.70
4306;DHT22;2166;49.926;8.608;2024-02-23T05:43:28;4.40;65.40
4306;DHT22;2166;49.926;8.608;2024-02-23T05:45:57;4.40;65.70
4306;DHT22;2166;49.926;8.608;2024-02-23T05:48:27;4.40;66.20
4306;DHT22;2166;49.926;8.608;2024-02-23T05:50:55;4.40;66.30
4306;DHT22;2166;49.926;8.608;2024-02-23T05:53:23;4.50;67.10
4306;DHT22;2166;49.926;8.608;2024-02-23T05:55:51;4.50;67.20
4306;DHT22;2166;49.926;8.608;2024-02-23T05:58:19;4.50;67.10
4306;DHT22;2166;49.926;8.608;2024-02-23T06:00:47;4.40;66.80
4306;DHT22;2166;49.926;8.608;2024-02-23T06:03:16;4.40;66.10
4306;DHT22;2166;49.926;8.608;2024-02-23T06:05:47;4.50;66.30
4306;DHT22;2166;49.926;8.608;2024-02-23T06:08:15;4.60;67.60
4306;DHT22;2166;49.926;8.608;2024-02-23T06:10:44;4.70;68.80
4306;DHT22;2166;49.926;8.608;2024-02-23T06:13:12;4.90;69.90
4306;DHT22;2166;49.926;8.608;2024-02-23T06:15:40;5.00;71.60
4306;DHT22;2166;49.926;8.608;2024-02-23T06:18:09;5.10;73.60
4306;DHT22;2166;49.926;8.608;2024-02-23T06:20:37;5.30;74.90
4306;DHT22;2166;49.926;8.608;2024-02-23T06:23:07;5.40;75.20
4306;DHT22;2166;49.926;8.608;2024-02-23T06:25:35;5.50;75.90
4306;DHT22;2166;49.926;8.608;2024-02-23T06:28:04;5.50;77.00
4306;DHT22;2166;49.926;8.608;2024-02-23T06:30:33;5.60;76.90
4306;DHT22;2166;49.926;8.608;2024-02-23T06:33:01;5.60;78.10
4306;DHT22;2166;49.926;8.608;2024-02-23T06:35:32;5.70;77.90
4306;DHT22;2166;49.926;8.608;2024-02-23T06:38:00;5.70;78.20
4306;DHT22;2166;49.926;8.608;2024-02-23T06:40:30;5.70;78.70
4306;DHT22;2166;49.926;8.608;2024-02-23T06:43:14;5.80;78.20
4306;DHT22;2166;49.926;8.608;2024-02-23T06:45:43;5.90;79.10
4306;DHT22;2166;49.926;8.608;2024-02-23T06:48:11;5.80;79.30
4306;DHT22;2166;49.926;8.608;2024-02-23T06:50:39;5.80;79.70
4306;DHT22;2166;49.926;8.608;2024-02-23T06:53:07;5.90;79.40
4306;DHT22;2166;49.926;8.608;2024-02-23T06:55:37;5.90;79.90
4306;DHT22;2166;49.926;8.608;2024-02-23T06:58:05;5.90;79.60
4306;DHT22;2166;49.926;8.608;2024-02-23T07:00:34;5.90;80.00
4306;DHT22;2166;49.926;8.608;2024-02-23T07:03:02;5.90;80.10
4306;DHT22;2166;49.926;8.608;2024-02-23T07:05:31;6.00;80.00
4306;DHT22;2166;49.926;8.608;2024-02-23T07:07:59;6.00;80.00
4306;DHT22;2166;49.926;8.608;2024-02-23T07:10:28;6.10;80.30
4306;DHT22;2166;49.926;8.608;2024-02-23T07:12:57;6.60;81.00
4306;DHT22;2166;49.926;8.608;2024-02-23T07:15:25;6.80;80.70
4306;DHT22;2166;49.926;8.608;2024-02-23T07:17:54;7.00;80.70
4306;DHT22;2166;49.926;8.608;2024-02-23T07:20:22;7.20;80.60
4306;DHT22;2166;49.926;8.608;2024-02-23T07:22:51;7.10;80.40
4306;DHT22;2166;49.926;8.608;2024-02-23T07:25:20;7.20;80.00
4306;DHT22;2166;49.926;8.608;2024-02-23T07:27:49;7.50;79.80
4306;DHT22;2166;49.926;8.608;2024-02-23T07:30:18;7.60;79.60
4306;DHT22;2166;49.926;8.608;2024-02-23T07:32:46;7.50;79.80
4306;DHT22;2166;49.926;8.608;2024-02-23T07:35:21;7.20;79.80
4306;DHT22;2166;49.926;8.608;2024-02-23T07:37:49;6.90;80.20
4306;DHT22;2166;49.926;8.608;2024-02-23T07:40:18;6.60;80.30
4306;DHT22;2166;49.926;8.608;2024-02-23T07:42:48;6.30;80.50
4306;DHT22;2166;49.926;8.608;2024-02-23T07:45:18;6.20;80.30
4306;DHT22;2166;49.926;8.608;2024-02-23T07:47:46;6.50;80.60
4306;DHT22;2166;49.926;8.608;2024-02-23T07:50:15;6.80;80.60
4306;DHT22;2166;49.926;8.608;2024-02-23T07:52:45;6.70;80.40
4306;DHT22;2166;49.926;8.608;2024-02-23T07:55:14;6.60;80.40
4306;DHT22;2166;49.926;8.608;2024-02-23T07:57:43;6.70;80.70
4306;DHT22;2166;49.926;8.608;2024-02-23T08:00:12;7.10;80.40
4306;DHT22;2166;49.926;8.608;2024-02-23T08:02:42;7.80;79.80
4306;DHT22;2166;49.926;8.608;2024-02-23T08:05:10;8.50;78.30
4306;DHT22;2166;49.926;8.608;2024-02-23T08:07:38;9.40;77.50
4306;DHT22;2166;49.926;8.608;2024-02-23T08:10:07;9.90;75.90
4306;DHT22;2166;49.926;8.608;2024-02-23T08:12:36;9.90;75.10
4306;DHT22;2166;49.926;8.608;2024-02-23T08:15:09;9.60;75.20
4306;DHT22;2166;49.926;8.608;2024-02-23T08:17:37;9.30;76.90
4306;DHT22;2166;49.926;8.608;2024-02-23T08:20:08;8.90;77.80
4306;DHT22;2166;49.926;8.608;2024-02-23T08:22:37;8.60;78.30
4306;DHT22;2166;49.926;8.608;2024-02-23T08:25:06;8.40;79.20
4306;DHT22;2166;49.926;8.608;2024-02-23T08:27:36;8.00;79.50
4306;DHT22;2166;49.926;8.608;2024-02-23T08:30:05;7.60;80.10
4306;DHT22;2166;49.926;8.608;2024-02-23T08:32:34;7.60;80.30
4306;DHT22;2166;49.926;8.608;2024-02-23T08:35:04;7.60;80.40
4306;DHT22;2166;49.926;8.608;2024-02-23T08:37:33;7.70;80.30
4306;DHT22;2166;49.926;8.608;2024-02-23T08:40:01;7.90;80.30
4306;DHT22;2166;49.926;8.608;2024-02-23T08:42:30;8.00;80.20
4306;DHT22;2166;49.926;8.608;2024-02-23T08:44:58;7.90;80.00
4306;DHT22;2166;49.926;8.608;2024-02-23T08:47:26;7.90;79.90
4306;DHT22;2166;49.926;8.608;2024-02-23T08:49:59;7.90;80.10
4306;DHT22;2166;49.926;8.608;2024-02-23T08:52:27;7.90;80.10
4306;DHT22;2166;49.926;8.608;2024-02-23T08:54:57;7.70;80.00
4306;DHT22;2166;49.926;8.608;2024-02-23T08:57:27;7.70;80.50
4306;DHT22;2166;49.926;8.608;2024-02-23T08:59:55;7.90;80.70
4306;DHT22;2166;49.926;8.608;2024-02-23T09:02:25;7.90;80.30
4306;DHT22;2166;49.926;8.608;2024-02-23T09:04:53;8.10;80.10
4306;DHT22;2166;49.926;8.608;2024-02-23T09:07:22;8.00;79.90
4306;DHT22;2166;49.926;8.608;2024-02-23T09:09:51;8.00;80.20
4306;DHT22;2166;49.926;8.608;2024-02-23T09:12:21;8.00;79.90
4306;DHT22;2166;49.926;8.608;2024-02-23T09:14:49;8.10;80.00
4306;DHT22;2166;49.926;8.608;2024-02-23T09:17:17;8.20;79.90
4306;DHT22;2166;49.926;8.608;2024-02-23T09:19:47;8.20;79.90
4306;DHT22;2166;49.926;8.608;2024-02-23T09:22:15;8.10;80.00
4306;DHT22;2166;49.926;8.608;2024-02-23T09:24:44;8.00;79.90
4306;DHT22;2166;49.926;8.608;2024-02-23T09:27:12;8.00;80.00
4306;DHT22;2166;49.926;8.608;2024-02-23T09:29:42;8.00;79.90
4306;DHT22;2166;49.926;8.608;2024-02-23T09:32:10;8.00;80.00
4306;DHT22;2166;49.926;8.608;2024-02-23T09:34:39;8.20;80.10
4306;DHT22;2166;49.926;8.608;2024-02-23T09:37:07;8.30;79.90
4306;DHT22;2166;49.926;8.608;2024-02-23T09:39:35;8.30;80.00
4306;DHT22;2166;49.926;8.608;2024-02-23T09:42:07;8.20;79.90
4306;DHT22;2166;49.926;8.608;2024-02-23T09:44:37;8.30;79.80
4306;DHT22;2166;49.926;8.608;2024-02-23T09:47:07;8.60;79.60
4306;DHT22;2166;49.926;8.608;2024-02-23T09:49:39;9.60;78.50
4306;DHT22;2166;49.926;8.608;2024-02-23T09:52:08;10.20;75.00
4306;DHT22;2166;49.926;8.608;2024-02-23T09:54:37;10.10;75.00
4306;DHT22;2166;49.926;8.608;2024-02-23T09:57:08;10.00;75.20
4306;DHT22;2166;49.926;8.608;2024-02-23T09:59:37;9.80;75.00
4306;DHT22;2166;49.926;8.608;2024-02-23T10:02:09;9.50;75.30
4306;DHT22;2166;49.926;8.608;2024-02-23T10:04:38;9.30;76.50
4306;DHT22;2166;49.926;8.608;2024-02-23T10:07:07;9.00;77.40
4306;DHT22;2166;49.926;8.608;2024-02-23T10:09:36;9.00;77.50
4306;DHT22;2166;49.926;8.608;2024-02-23T10:12:05;9.20;77.80
4306;DHT22;2166;49.926;8.608;2024-02-23T10:14:34;9.30;77.40
4306;DHT22;2166;49.926;8.608;2024-02-23T10:17:03;9.40;77.40
4306;DHT22;2166;49.926;8.608;2024-02-23T10:19:33;9.40;77.20
4306;DHT22;2166;49.926;8.608;2024-02-23T10:22:02;9.20;76.80
4306;DHT22;2166;49.926;8.608;2024-02-23T10:24:31;9.10;76.90
4306;DHT22;2166;49.926;8.608;2024-02-23T10:27:00;9.00;77.30
4306;DHT22;2166;49.926;8.608;2024-02-23T10:29:29;8.90;77.40
4306;DHT22;2166;49.926;8.608;2024-02-23T10:31:58;9.00;77.80
4306;DHT22;2166;49.926;8.608;2024-02-23T10:34:28;9.20;77.80
4306;DHT22;2166;49.926;8.608;2024-02-23T10:36:59;9.20;77.30
4306;DHT22;2166;49.926;8.608;2024-02-23T10:39:29;9.10;78.10
4306;DHT22;2166;49.926;8.608;2024-02-23T10:42:03;9.10;78.20
4306;DHT22;2166;49.926;8.608;2024-02-23T10:44:31;9.00;78.40
4306;DHT22;2166;49.926;8.608;2024-02-23T10:47:00;9.10;78.40
4306;DHT22;2166;49.926;8.608;2024-02-23T10:49:30;9.70;77.30
4306;DHT22;2166;49.926;8.608;2024-02-23T10:52:02;10.30;75.40
4306;DHT22;2166;49.926;8.608;2024-02-23T10:54:31;10.90;74.10
4306;DHT22;2166;49.926;8.608;2024-02-23T10:56:59;11.20;72.60
4306;DHT22;2166;49.926;8.608;2024-02-23T10:59:29;11.40;71.80
4306;DHT22;2166;49.926;8.608;2024-02-23T11:01:58;11.50;71.80
4306;DHT22;2166;49.926;8.608;2024-02-23T11:04:29;11.10;73.20
4306;DHT22;2166;49.926;8.608;2024-02-23T11:07:01;11.00;72.60
4306;DHT22;2166;49.926;8.608;2024-02-23T11:09:35;11.30;72.50
4306;DHT22;2166;49.926;8.608;2024-02-23T11:12:04;11.40;72.10
4306;DHT22;2166;49.926;8.608;2024-02-23T11:14:35;10.90;71.80
4306;DHT22;2166;49.926;8.608;2024-02-23T11:17:05;10.30;75.30
4306;DHT22;2166;49.926;8.608;2024-02-23T11:19:34;9.70;77.50
4306;DHT22;2166;49.926;8.608;2024-02-23T11:22:05;9.50;79.10
4306;DHT22;2166;49.926;8.608;2024-02-23T11:24:49;9.30;79.80
4306;DHT22;2166;49.926;8.608;2024-02-23T11:27:24;9.00;80.80
4306;DHT22;2166;49.926;8.608;2024-02-23T11:29:59;9.00;80.30
4306;DHT22;2166;49.926;8.608;2024-02-23T11:32:37;9.00;80.70
4306;DHT22;2166;49.926;8.608;2024-02-23T11:35:06;8.90;79.50
4306;DHT22;2166;49.926;8.608;2024-02-23T11:37:46;8.80;79.40
4306;DHT22;2166;49.926;8.608;2024-02-23T11:40:15;8.60;78.60
4306;DHT22;2166;49.926;8.608;2024-02-23T11:42:45;8.30;78.20
4306;DHT22;2166;49.926;8.608;2024-02-23T11:45:14;8.30;79.00
4306;DHT22;2166;49.926;8.608;2024-02-23T11:47:43;8.20;78.10
4306;DHT22;2166;49.926;8.608;2024-02-23T11:50:11;8.30;76.50
4306;DHT22;2166;49.926;8.608;2024-02-23T11:52:40;8.60;76.50
4306;DHT22;2166;49.926;8.608;2024-02-23T11:55:10;8.80;78.70
4306;DHT22;2166;49.926;8.608;2024-02-23T11:57:38;9.20;79.00
4306;DHT22;2166;49.926;8.608;2024-02-23T12:00:14;9.60;80.10
4306;DHT22;2166;49.926;8.608;2024-02-23T12:02:43;10.00;79.80
4306;DHT22;2166;49.926;8.608;2024-02-23T12:05:13;9.90;78.90
4306;DHT22;2166;49.926;8.608;2024-02-23T12:07:42;9.90;78.90
4306;DHT22;2166;49.926;8.608;2024-02-23T12:10:15;9.90;78.70
4306;DHT22;2166;49.926;8.608;2024-02-23T12:12:43;9.80;79.00
4306;DHT22;2166;49.926;8.608;2024-02-23T12:15:12;9.80;78.80
4306;DHT22;2166;49.926;8.608;2024-02-23T12:17:46;9.50;79.20
4306;DHT22;2166;49.926;8.608;2024-02-23T12:20:15;9.20;79.70
4306;DHT22;2166;49.926;8.608;2024-02-23T12:22:45;8.80;78.40
4306;DHT22;2166;49.926;8.608;2024-02-23T12:25:14;8.50;78.30
4306;DHT22;2166;49.926;8.608;2024-02-23T12:27:43;8.30;74.80
4306;DHT22;2166;49.926;8.608;2024-02-23T12:30:13;8.30;72.00
4306;DHT22;2166;49.926;8.608;2024-02-23T12:32:42;8.30;73.30
4306;DHT22;2166;49.926;8.608;2024-02-23T12:35:11;8.10;71.30
4306;DHT22;2166;49.926;8.608;2024-02-23T12:37:40;8.20;67.40
4306;DHT22;2166;49.926;8.608;2024-02-23T12:40:11;9.00;70.60
4306;DHT22;2166;49.926;8.608;2024-02-23T12:42:42;9.40;73.40
4306;DHT22;2166;49.926;8.608;2024-02-23T12:45:11;9.70;78.40
4306;DHT22;2166;49.926;8.608;2024-02-23T12:47:39;9.40;79.30
4306;DHT22;2166;49.926;8.608;2024-02-23T12:50:08;9.10;77.90
4306;DHT22;2166;49.926;8.608;2024-02-23T12:52:38;8.90;78.80
4306;DHT22;2166;49.926;8.608;2024-02-23T12:55:07;8.80;77.20
4306;DHT22;2166;49.926;8.608;2024-02-23T12:57:35;9.00;76.40
4306;DHT22;2166;49.926;8.608;2024-02-23T13:00:06;9.70;78.20
4306;DHT22;2166;49.926;8.608;2024-02-23T13:02:35;10.10;79.60
4306;DHT22;2166;49.926;8.608;2024-02-23T13:05:04;10.50;79.10
4306;DHT22;2166;49.926;8.608;2024-02-23T13:07:32;11.00;78.60
4306;DHT22;2166;49.926;8.608;2024-02-23T13:10:00;10.90;77.40
4306;DHT22;2166;49.926;8.608;2024-02-23T13:12:29;10.70;78.20
4306;DHT22;2166;49.926;8.608;2024-02-23T13:14:57;10.70;79.30
4306;DHT22;2166;49.926;8.608;2024-02-23T13:17:27;10.80;78.50
4306;DHT22;2166;49.926;8.608;2024-02-23T13:19:56;10.90;78.10
4306;DHT22;2166;49.926;8.608;2024-02-23T13:22:37;11.50;78.30
4306;DHT22;2166;49.926;8.608;2024-02-23T13:25:05;12.50;75.40
4306;DHT22;2166;49.926;8.608;2024-02-23T13:27:34;13.40;72.90
4306;DHT22;2166;49.926;8.608;2024-02-23T13:30:03;13.80;68.00
4306;DHT22;2166;49.926;8.608;2024-02-23T13:32:33;13.60;69.30
4306;DHT22;2166;49.926;8.608;2024-02-23T13:35:03;13.70;68.10
4306;DHT22;2166;49.926;8.608;2024-02-23T13:37:33;13.60;68.80
4306;DHT22;2166;49.926;8.608;2024-02-23T13:40:01;13.30;69.40
4306;DHT22;2166;49.926;8.608;2024-02-23T13:42:32;12.80;70.10
4306;DHT22;2166;49.926;8.608;2024-02-23T13:45:01;12.10;70.50
4306;DHT22;2166;49.926;8.608;2024-02-23T13:47:29;11.50;74.60
4306;DHT22;2166;49.926;8.608;2024-02-23T13:49:59;11.00;73.40
4306;DHT22;2166;49.926;8.608;2024-02-23T13:52:27;10.40;76.50
4306;DHT22;2166;49.926;8.608;2024-02-23T13:54:56;10.00;78.80
4306;DHT22;2166;49.926;8.608;2024-02-23T13:57:24;9.90;79.70
4306;DHT22;2166;49.926;8.608;2024-02-23T13:59:52;9.90;79.60
4306;DHT22;2166;49.926;8.608;2024-02-23T14:02:25;10.00;80.50
4306;DHT22;2166;49.926;8.608;2024-02-23T14:05:00;10.10;79.40
4306;DHT22;2166;49.926;8.608;2024-02-23T14:07:29;10.10;79.00
4306;DHT22;2166;49.926;8.608;2024-02-23T14:09:58;10.00;79.30
4306;DHT22;2166;49.926;8.608;2024-02-23T14:12:27;9.80;79.70
4306;DHT22;2166;49.926;8.608;2024-02-23T14:14:55;9.70;80.00
4306;DHT22;2166;49.926;8.608;2024-02-23T14:17:24;9.60;79.40
4306;DHT22;2166;49.926;8.608;2024-02-23T14:19:52;9.30;79.70
4306;DHT22;2166;49.926;8.608;2024-02-23T14:22:22;9.10;81.00
4306;DHT22;2166;49.926;8.608;2024-02-23T14:24:51;8.90;80.60
4306;DHT22;2166;49.926;8.608;2024-02-23T14:27:20;8.80;81.30
4306;DHT22;2166;49.926;8.608;2024-02-23T14:29:48;8.70;77.90
4306;DHT22;2166;49.926;8.608;2024-02-23T14:32:17;8.40;72.30
4306;DHT22;2166;49.926;8.608;2024-02-23T14:34:45;8.50;72.20
4306;DHT22;2166;49.926;8.608;2024-02-23T14:37:14;8.30;74.10
4306;DHT22;2166;49.926;8.608;2024-02-23T14:39:43;8.30;70.50
4306;DHT22;2166;49.926;8.608;2024-02-23T14:42:14;8.30;72.20
4306;DHT22;2166;49.926;8.608;2024-02-23T14:44:42;8.20;74.40
4306;DHT22;2166;49.926;8.608;2024-02-23T14:47:10;8.10;75.80
4306;DHT22;2166;49.926;8.608;2024-02-23T14:49:39;7.80;76.50
4306;DHT22;2166;49.926;8.608;2024-02-23T14:52:08;7.60;75.30
4306;DHT22;2166;49.926;8.608;2024-02-23T14:54:36;7.40;76.70
4306;DHT22;2166;49.926;8.608;2024-02-23T14:57:06;7.40;75.80
4306;DHT22;2166;49.926;8.608;2024-02-23T14:59:34;7.60;74.90
4306;DHT22;2166;49.926;8.608;2024-02-23T15:02:09;7.90;75.80
4306;DHT22;2166;49.926;8.608;2024-02-23T15:04:43;8.50;75.90
4306;DHT22;2166;49.926;8.608;2024-02-23T15:07:11;9.30;79.40
4306;DHT22;2166;49.926;8.608;2024-02-23T15:09:40;10.00;79.60
4306;DHT22;2166;49.926;8.608;2024-02-23T15:12:11;10.40;79.60
4306;DHT22;2166;49.926;8.608;2024-02-23T15:14:40;10.60;78.80
4306;DHT22;2166;49.926;8.608;2024-02-23T15:17:09;10.60;78.80
4306;DHT22;2166;49.926;8.608;2024-02-23T15:19:37;10.60;78.70
4306;DHT22;2166;49.926;8.608;2024-02-23T15:22:05;10.50;77.90
4306;DHT22;2166;49.926;8.608;2024-02-23T15:24:36;10.60;78.20
4306;DHT22;2166;49.926;8.608;2024-02-23T15:27:04;10.60;78.50
4306;DHT22;2166;49.926;8.608;2024-02-23T15:29:34;10.70;79.00
4306;DHT22;2166;49.926;8.608;2024-02-23T15:32:03;10.60;78.60
4306;DHT22;2166;49.926;8.608;2024-02-23T15:34:32;10.50;78.80
4306;DHT22;2166;49.926;8.608;2024-02-23T15:37:00;10.30;79.10
4306;DHT22;2166;49.926;8.608;2024-02-23T15:39:31;10.40;78.90
4306;DHT22;2166;49.926;8.608;2024-02-23T15:41:59;10.40;79.30
4306;DHT22;2166;49.926;8.608;2024-02-23T15:44:27;10.40;79.00
4306;DHT22;2166;49.926;8.608;2024-02-23T15:46:59;10.30;78.90
4306;DHT22;2166;49.926;8.608;2024-02-23T15:49:27;10.30;78.80
4306;DHT22;2166;49.926;8.608;2024-02-23T15:52:15;10.40;78.50
4306;DHT22;2166;49.926;8.608;2024-02-23T15:54:43;10.50;78.30
4306;DHT22;2166;49.926;8.608;2024-02-23T15:57:12;10.20;78.40
4306;DHT22;2166;49.926;8.608;2024-02-23T15:59:40;10.10;79.00
4306;DHT22;2166;49.926;8.608;2024-02-23T16:02:10;10.00;78.40
4306;DHT22;2166;49.926;8.608;2024-02-23T16:04:39;9.90;79.00
4306;DHT22;2166;49.926;8.608;2024-02-23T16:07:07;9.90;78.70
4306;DHT22;2166;49.926;8.608;2024-02-23T16:09:36;9.60;79.00
4306;DHT22;2166;49.926;8.608;2024-02-23T16:12:05;9.20;79.10
4306;DHT22;2166;49.926;8.608;2024-02-23T16:14:33;9.00;79.40
4306;DHT22;2166;49.926;8.608;2024-02-23T16:17:02;8.70;79.50
4306;DHT22;2166;49.926;8.608;2024-02-23T16:19:32;8.40;79.40
4306;DHT22;2166;49.926;8.608;2024-02-23T16:22:00;8.30;79.80
4306;DHT22;2166;49.926;8.608;2024-02-23T16:24:29;8.20;79.60
4306;DHT22;2166;49.926;8.608;2024-02-23T16:26:58;8.00;79.30